createdAt,value
2019-04-03T00:00:40.230Z,101904.00
2019-04-03T00:03:13.053Z,101905.00
2019-04-03T00:05:46.259Z,101905.00
2019-04-03T00:08:19.093Z,101907.00
2019-04-03T00:10:52.495Z,101906.00
2019-04-03T00:13:25.392Z,101910.00
2019-04-03T00:15:58.762Z,101917.00
2019-04-03T00:18:31.559Z,101915.00
2019-04-03T00:21:05.075Z,101916.00
2019-04-03T00:23:37.976Z,101910.00
2019-04-03T00:26:11.144Z,101907.00
2019-04-03T00:28:43.949Z,101910.00
2019-04-03T00:31:17.236Z,101916.00
2019-04-03T00:33:50.103Z,101917.00
2019-04-03T00:36:23.982Z,101912.00
2019-04-03T00:38:58.087Z,101909.00
2019-04-03T00:41:31.591Z,101899.00
2019-04-03T00:44:04.523Z,101890.00
2019-04-03T00:46:37.714Z,101888.00
2019-04-03T00:49:10.699Z,101887.00
2019-04-03T00:51:43.830Z,101893.00
2019-04-03T00:54:16.925Z,101891.00
2019-04-03T00:56:50.153Z,101886.00
2019-04-03T00:59:23.098Z,101870.00
2019-04-03T01:01:56.504Z,101870.00
2019-04-03T01:04:29.864Z,101874.00
2019-04-03T01:07:03.032Z,101847.00
2019-04-03T01:09:36.028Z,101851.00
2019-04-03T01:12:09.257Z,101846.00
2019-04-03T01:14:42.202Z,101848.00
2019-04-03T01:17:17.574Z,101853.00
2019-04-03T01:19:50.432Z,101852.00
2019-04-03T01:22:23.613Z,101861.00
2019-04-03T01:24:56.405Z,101851.00
2019-04-03T01:27:29.841Z,101855.00
2019-04-03T01:30:02.865Z,101869.00
2019-04-03T01:32:35.894Z,101855.00
2019-04-03T01:35:09.751Z,101856.00
2019-04-03T01:37:42.740Z,101849.00
2019-04-03T01:40:19.998Z,101847.00
2019-04-03T01:42:52.790Z,101848.00
2019-04-03T01:45:26.291Z,101837.00
2019-04-03T01:47:59.439Z,101833.00
2019-04-03T01:50:32.420Z,101837.00
2019-04-03T01:53:05.731Z,101832.00
2019-04-03T01:55:38.591Z,101830.00
2019-04-03T01:58:11.763Z,101838.00
2019-04-03T02:00:44.548Z,101837.00
2019-04-03T02:03:17.989Z,101827.00
2019-04-03T02:05:50.954Z,101835.00
2019-04-03T02:08:25.184Z,101828.00
2019-04-03T02:10:58.025Z,101832.00
2019-04-03T02:13:31.394Z,101830.00
2019-04-03T02:16:04.319Z,101832.00
2019-04-03T02:18:57.529Z,101830.00
2019-04-03T02:22:22.395Z,101830.00
2019-04-03T02:24:55.563Z,101825.00
2019-04-03T02:27:29.505Z,101819.00
2019-04-03T02:30:02.486Z,101807.00
2019-04-03T02:32:35.360Z,101810.00
2019-04-03T02:35:09.821Z,101809.00
2019-04-03T02:37:43.098Z,101803.00
2019-04-03T02:40:16.482Z,101805.00
2019-04-03T02:42:50.137Z,101806.00
2019-04-03T02:45:24.190Z,101805.00
2019-04-03T02:47:57.092Z,101793.00
2019-04-03T02:50:30.184Z,101781.00
2019-04-03T02:53:04.921Z,101786.00
2019-04-03T02:55:39.745Z,101785.00
2019-04-03T02:58:12.376Z,101792.00
2019-04-03T03:00:45.182Z,101792.00
2019-04-03T03:03:18.576Z,101791.00
2019-04-03T03:05:51.549Z,101791.00
2019-04-03T03:08:24.806Z,101787.00
2019-04-03T03:11:00.194Z,101783.00
2019-04-03T03:13:35.218Z,101797.00
2019-04-03T03:16:09.139Z,101803.00
2019-04-03T03:18:42.699Z,101815.00
2019-04-03T03:21:16.734Z,101813.00
2019-04-03T03:23:50.789Z,101820.00
2019-04-03T03:26:25.584Z,101817.00
2019-04-03T03:29:14.261Z,101818.00
2019-04-03T03:31:59.226Z,101816.00
2019-04-03T03:34:09.028Z,101820.00
2019-04-03T03:36:43.577Z,101806.00
2019-04-03T03:39:16.893Z,101803.00
2019-04-03T03:41:55.488Z,101797.00
2019-04-03T03:44:27.129Z,101805.00
2019-04-03T03:47:02.739Z,101811.00
2019-04-03T03:49:35.649Z,101807.00
2019-04-03T03:52:09.278Z,101798.00
2019-04-03T03:54:42.844Z,101804.00
2019-04-03T03:57:17.743Z,101804.00
2019-04-03T03:59:53.631Z,101801.00
2019-04-03T04:02:27.760Z,101789.00
2019-04-03T04:05:01.651Z,101787.00
2019-04-03T04:07:37.490Z,101792.00
2019-04-03T04:10:09.682Z,101803.00
2019-04-03T04:12:42.777Z,101802.00
2019-04-03T04:15:15.918Z,101802.00
2019-04-03T04:17:50.995Z,101800.00
2019-04-03T04:20:23.569Z,101807.00
2019-04-03T04:22:56.387Z,101820.00
2019-04-03T04:25:30.552Z,101815.00
2019-04-03T04:28:04.011Z,101802.00
2019-04-03T04:30:42.036Z,101810.00
2019-04-03T04:33:16.429Z,101811.00
2019-04-03T04:35:49.726Z,101825.00
2019-04-03T04:38:22.849Z,101823.00
2019-04-03T04:40:55.569Z,101819.00
2019-04-03T04:43:30.016Z,101823.00
2019-04-03T04:46:04.129Z,101818.00
2019-04-03T04:48:37.631Z,101823.00
2019-04-03T04:51:10.679Z,101818.00
2019-04-03T04:53:43.778Z,101817.00
2019-04-03T04:56:16.698Z,101816.00
2019-04-03T04:58:49.906Z,101818.00
2019-04-03T05:01:23.187Z,101817.00
2019-04-03T05:03:56.057Z,101825.00
2019-04-03T05:06:29.883Z,101827.00
2019-04-03T05:09:03.877Z,101828.00
2019-04-03T05:11:39.108Z,101826.00
2019-04-03T05:14:12.699Z,101825.00
2019-04-03T05:16:45.951Z,101823.00
2019-04-03T05:19:19.518Z,101820.00
2019-04-03T05:21:53.539Z,101820.00
2019-04-03T05:24:28.459Z,101820.00
2019-04-03T05:27:02.552Z,101827.00
2019-04-03T05:29:35.399Z,101832.00
2019-04-03T05:32:10.687Z,101830.00
2019-04-03T05:34:44.047Z,101835.00
2019-04-03T05:37:19.708Z,101836.00
2019-04-03T05:39:54.734Z,101856.00
2019-04-03T05:42:26.991Z,101852.00
2019-04-03T05:45:03.494Z,101854.00
2019-04-03T05:47:35.186Z,101852.00
2019-04-03T05:50:10.412Z,101852.00
2019-04-03T05:52:44.055Z,101855.00
2019-04-03T05:55:16.766Z,101862.00
2019-04-03T05:57:49.916Z,101855.00
2019-04-03T06:00:22.670Z,101865.00
2019-04-03T06:02:57.190Z,101861.00
2019-04-03T06:05:29.860Z,101863.00
2019-04-03T06:08:03.004Z,101857.00
2019-04-03T06:10:37.449Z,101857.00
2019-04-03T06:13:11.654Z,101855.00
2019-04-03T06:15:44.438Z,101863.00
2019-04-03T06:18:18.151Z,101870.00
2019-04-03T06:20:51.121Z,101869.00
2019-04-03T06:23:24.710Z,101873.00
2019-04-03T06:26:00.717Z,101877.00
2019-04-03T06:28:31.969Z,101884.00
2019-04-03T06:31:07.738Z,101875.00
2019-04-03T06:33:39.573Z,101876.00
2019-04-03T06:36:12.892Z,101881.00
2019-04-03T06:38:47.081Z,101883.00
2019-04-03T06:41:20.433Z,101887.00
2019-04-03T06:43:54.505Z,101892.00
2019-04-03T06:46:29.100Z,101894.00
2019-04-03T06:49:03.501Z,101894.00
2019-04-03T06:51:37.449Z,101888.00
2019-04-03T06:54:10.416Z,101890.00
2019-04-03T06:56:44.865Z,101893.00
2019-04-03T06:59:17.714Z,101905.00
2019-04-03T07:01:52.865Z,101900.00
2019-04-03T07:04:24.913Z,101902.00
2019-04-03T07:06:58.110Z,101899.00
2019-04-03T07:09:35.558Z,101903.00
2019-04-03T07:12:06.132Z,101902.00
2019-04-03T07:14:39.119Z,101914.00
2019-04-03T07:17:12.400Z,101926.00
2019-04-03T07:19:45.424Z,101931.00
2019-04-03T07:22:19.482Z,101940.00
2019-04-03T07:24:52.577Z,101937.00
2019-04-03T07:27:25.494Z,101938.00
2019-04-03T07:29:58.552Z,101940.00
2019-04-03T07:32:31.458Z,101942.00
2019-04-03T07:35:08.999Z,101954.00
2019-04-03T07:37:39.578Z,101954.00
2019-04-03T07:40:16.619Z,101964.00
2019-04-03T07:42:50.082Z,101956.00
2019-04-03T07:45:22.989Z,101959.00
2019-04-03T07:47:56.766Z,101960.00
2019-04-03T07:50:30.737Z,101963.00
2019-04-03T07:53:06.069Z,101965.00
2019-04-03T07:55:46.674Z,101968.00
2019-04-03T07:58:19.846Z,101966.00
2019-04-03T08:00:53.936Z,101968.00
2019-04-03T08:03:26.837Z,101974.00
2019-04-03T08:06:01.089Z,101976.00
2019-04-03T08:08:34.011Z,101966.00
2019-04-03T08:11:07.521Z,101970.00
2019-04-03T08:13:40.722Z,101973.00
2019-04-03T08:16:15.838Z,101971.00
2019-04-03T08:18:51.413Z,101964.00
2019-04-03T08:21:24.297Z,101972.00
2019-04-03T08:23:57.822Z,101976.00
2019-04-03T08:26:31.446Z,101967.00
2019-04-03T08:29:06.024Z,101967.00
2019-04-03T08:31:42.760Z,101972.00
2019-04-03T08:34:16.801Z,101967.00
2019-04-03T08:36:47.692Z,101958.00
2019-04-03T08:39:20.943Z,101964.00
2019-04-03T08:41:56.038Z,101957.00
2019-04-03T08:44:28.349Z,101955.00
2019-04-03T08:47:02.085Z,101948.00
2019-04-03T08:49:36.073Z,101955.00
2019-04-03T08:52:10.413Z,101953.00
2019-04-03T08:54:43.511Z,101949.00
2019-04-03T08:57:19.939Z,101959.00
2019-04-03T08:59:51.789Z,101964.00
2019-04-03T09:02:25.242Z,101956.00
2019-04-03T09:04:58.461Z,101962.00
2019-04-03T09:07:31.499Z,101956.00
2019-04-03T09:10:04.497Z,101959.00
2019-04-03T09:12:38.124Z,101966.00
2019-04-03T09:15:12.335Z,101970.00
2019-04-03T09:17:45.807Z,101967.00
2019-04-03T09:20:18.925Z,101960.00
2019-04-03T09:22:53.632Z,101971.00
2019-04-03T09:25:26.269Z,101967.00
2019-04-03T09:27:59.703Z,101964.00
2019-04-03T09:30:32.940Z,101962.00
2019-04-03T09:33:07.131Z,101962.00
2019-04-03T09:35:42.679Z,101963.00
2019-04-03T09:38:14.490Z,101967.00
2019-04-03T09:40:48.283Z,101966.00
2019-04-03T09:43:23.184Z,101967.00
2019-04-03T09:45:59.164Z,101965.00
2019-04-03T09:48:31.049Z,101968.00
2019-04-03T09:51:03.816Z,101957.00
2019-04-03T09:53:37.082Z,101960.00
2019-04-03T09:56:10.108Z,101951.00
2019-04-03T09:58:43.255Z,101958.00
2019-04-03T10:01:18.440Z,101958.00
2019-04-03T10:03:53.425Z,101964.00
2019-04-03T10:06:25.706Z,101953.00
2019-04-03T10:08:58.741Z,101948.00
2019-04-03T10:11:31.690Z,101954.00
2019-04-03T10:14:04.503Z,101943.00
2019-04-03T10:16:37.537Z,101948.00
2019-04-03T10:19:12.415Z,101933.00
2019-04-03T10:21:44.470Z,101942.00
2019-04-03T10:24:17.533Z,101948.00
2019-04-03T10:26:50.681Z,101941.00
2019-04-03T10:29:23.628Z,101939.00
2019-04-03T10:31:57.038Z,101934.00
2019-04-03T10:34:30.338Z,101931.00
2019-04-03T10:37:03.883Z,101930.00
2019-04-03T10:39:39.586Z,101922.00
2019-04-03T10:42:11.648Z,101931.00
2019-04-03T10:44:44.331Z,101935.00
2019-04-03T10:47:20.507Z,101924.00
2019-04-03T10:49:52.020Z,101930.00
2019-04-03T10:52:25.898Z,101932.00
2019-04-03T10:54:58.943Z,101932.00
2019-04-03T10:57:33.956Z,101936.00
2019-04-03T11:00:06.960Z,101950.00
2019-04-03T11:02:40.282Z,101940.00
2019-04-03T11:05:13.964Z,101949.00
2019-04-03T11:07:48.222Z,101942.00
2019-04-03T11:10:23.366Z,101953.00
2019-04-03T11:12:56.245Z,101950.00
2019-04-03T11:15:29.222Z,101953.00
2019-04-03T11:18:03.817Z,101947.00
2019-04-03T11:20:37.143Z,101956.00
2019-04-03T11:23:11.103Z,101952.00
2019-04-03T11:25:45.914Z,101953.00
2019-04-03T11:28:18.257Z,101959.00
2019-04-03T11:30:52.889Z,101961.00
2019-04-03T11:33:25.630Z,101965.00
2019-04-03T11:35:59.449Z,101948.00
2019-04-03T11:38:32.963Z,101939.00
2019-04-03T11:41:13.112Z,101941.00
2019-04-03T11:43:40.820Z,101950.00
2019-04-03T11:46:15.255Z,101936.00
2019-04-03T11:48:48.680Z,101927.00
2019-04-03T11:51:23.307Z,101929.00
2019-04-03T11:53:56.529Z,101930.00
2019-04-03T11:56:29.506Z,101936.00
2019-04-03T11:59:02.414Z,101920.00
2019-04-03T12:01:36.469Z,101912.00
2019-04-03T12:04:12.047Z,101909.00
2019-04-03T12:06:43.586Z,101910.00
2019-04-03T12:09:16.395Z,101906.00
2019-04-03T12:11:49.562Z,101906.00
2019-04-03T12:14:22.638Z,101902.00
2019-04-03T12:16:57.950Z,101895.00
2019-04-03T12:19:29.970Z,101890.00
2019-04-03T12:22:03.214Z,101887.00
2019-04-03T12:24:36.231Z,101887.00
2019-04-03T12:27:09.649Z,101894.00
2019-04-03T12:29:42.536Z,101888.00
2019-04-03T12:32:15.605Z,101894.00
2019-04-03T12:34:48.607Z,101887.00
2019-04-03T12:37:24.524Z,101891.00
2019-04-03T12:39:56.300Z,101901.00
2019-04-03T12:42:29.919Z,101893.00
2019-04-03T12:45:02.991Z,101908.00
2019-04-03T12:47:36.230Z,101914.00
2019-04-03T12:50:13.455Z,101912.00
2019-04-03T12:52:47.028Z,101910.00
2019-04-03T12:55:20.003Z,101917.00
2019-04-03T12:57:53.154Z,101919.00
2019-04-03T13:00:25.952Z,101916.00
2019-04-03T13:02:58.924Z,101907.00
2019-04-03T13:05:32.256Z,101902.00
2019-04-03T13:08:05.479Z,101901.00
2019-04-03T13:10:42.189Z,101900.00
2019-04-03T13:13:12.506Z,101887.00
2019-04-03T13:15:45.384Z,101887.00
2019-04-03T13:18:18.276Z,101881.00
2019-04-03T13:20:51.457Z,101878.00
2019-04-03T13:23:24.444Z,101881.00
2019-04-03T13:25:57.949Z,101898.00
2019-04-03T13:28:30.835Z,101893.00
2019-04-03T13:31:04.034Z,101889.00
2019-04-03T13:33:38.719Z,101892.00
2019-04-03T13:36:11.051Z,101894.00
2019-04-03T13:38:43.852Z,101898.00
2019-04-03T13:41:16.960Z,101888.00
2019-04-03T13:43:52.482Z,101881.00
2019-04-03T13:46:24.399Z,101882.00
2019-04-03T13:48:57.401Z,101881.00
2019-04-03T13:51:30.553Z,101874.00
2019-04-03T13:54:06.979Z,101885.00
2019-04-03T13:56:42.248Z,101882.00
2019-04-03T13:59:12.979Z,101864.00
2019-04-03T14:01:46.271Z,101858.00
2019-04-03T14:04:22.051Z,101853.00
2019-04-03T14:06:54.335Z,101849.00
2019-04-03T14:09:27.279Z,101856.00
2019-04-03T14:12:04.177Z,101857.00
2019-04-03T14:14:36.445Z,101864.00
2019-04-03T14:17:09.541Z,101861.00
2019-04-03T14:19:45.925Z,101862.00
2019-04-03T14:22:16.687Z,101869.00
2019-04-03T14:24:52.554Z,101858.00
2019-04-03T14:27:29.147Z,101871.00
2019-04-03T14:29:59.362Z,101865.00
2019-04-03T14:32:32.991Z,101864.00
2019-04-03T14:35:29.952Z,101869.00
2019-04-03T14:37:40.861Z,101857.00
2019-04-03T14:40:14.507Z,101851.00
2019-04-03T14:42:47.664Z,101849.00
2019-04-03T14:45:22.090Z,101850.00
2019-04-03T14:47:55.806Z,101849.00
2019-04-03T14:50:29.251Z,101844.00
2019-04-03T14:53:03.702Z,101838.00
2019-04-03T14:55:47.492Z,101833.00
2019-04-03T14:58:12.206Z,101845.00
2019-04-03T15:00:47.456Z,101833.00
2019-04-03T15:03:19.606Z,101832.00
2019-04-03T15:05:52.597Z,101836.00
2019-04-03T15:08:25.999Z,101824.00
2019-04-03T15:10:58.766Z,101826.00
2019-04-03T15:13:32.292Z,101827.00
2019-04-03T15:16:05.601Z,101825.00
2019-04-03T15:18:41.323Z,101819.00
2019-04-03T15:21:13.256Z,101808.00
2019-04-03T15:23:46.373Z,101803.00
2019-04-03T15:26:21.755Z,101799.00
2019-04-03T15:28:53.525Z,101797.00
2019-04-03T15:31:26.566Z,101814.00
2019-04-03T15:33:59.630Z,101808.00
2019-04-03T15:36:34.924Z,101814.00
2019-04-03T15:39:09.230Z,101815.00
2019-04-03T15:41:42.467Z,101809.00
2019-04-03T15:44:15.570Z,101803.00
2019-04-03T15:46:49.620Z,101796.00
2019-04-03T15:49:25.586Z,101804.00
2019-04-03T15:51:56.952Z,101801.00
2019-04-03T15:54:32.907Z,101804.00
2019-04-03T15:57:05.759Z,101799.00
2019-04-03T15:59:40.311Z,101792.00
2019-04-03T16:02:13.376Z,101779.00
2019-04-03T16:04:46.415Z,101784.00
2019-04-03T16:07:19.423Z,101789.00
2019-04-03T16:09:52.699Z,101790.00
2019-04-03T16:12:25.837Z,101785.00
2019-04-03T16:14:59.513Z,101792.00
2019-04-03T16:17:33.552Z,101793.00
2019-04-03T16:20:06.615Z,101790.00
2019-04-03T16:22:39.608Z,101794.00
2019-04-03T16:25:16.135Z,101803.00
2019-04-03T16:27:48.922Z,101799.00
2019-04-03T16:30:22.001Z,101804.00
2019-04-03T16:32:57.549Z,101808.00
2019-04-03T16:35:30.044Z,101806.00
2019-04-03T16:38:04.539Z,101810.00
2019-04-03T16:40:38.799Z,101806.00
2019-04-03T16:43:11.832Z,101810.00
2019-04-03T16:45:46.292Z,101810.00
2019-04-03T16:48:19.081Z,101818.00
2019-04-03T16:50:52.483Z,101825.00
2019-04-03T16:53:25.253Z,101816.00
2019-04-03T16:55:58.435Z,101818.00
2019-04-03T16:58:32.473Z,101814.00
2019-04-03T17:01:05.651Z,101808.00
2019-04-03T17:03:38.680Z,101819.00
2019-04-03T17:06:13.204Z,101799.00
2019-04-03T17:08:45.652Z,101811.00
2019-04-03T17:11:19.133Z,101809.00
2019-04-03T17:13:52.836Z,101813.00
2019-04-03T17:16:26.228Z,101817.00
2019-04-03T17:18:59.240Z,101824.00
2019-04-03T17:21:36.939Z,101816.00
2019-04-03T17:24:07.224Z,101826.00
2019-04-03T17:26:49.853Z,101823.00
2019-04-03T17:29:14.864Z,101828.00
2019-04-03T17:31:48.474Z,101822.00
2019-04-03T17:34:21.444Z,101830.00
2019-04-03T17:36:55.617Z,101828.00
2019-04-03T17:39:28.335Z,101827.00
2019-04-03T17:42:02.362Z,101826.00
2019-04-03T17:44:38.029Z,101821.00
2019-04-03T17:47:09.460Z,101821.00
2019-04-03T17:49:42.448Z,101819.00
2019-04-03T17:52:15.610Z,101809.00
2019-04-03T17:54:48.278Z,101817.00
2019-04-03T17:57:24.237Z,101816.00
2019-04-03T17:59:57.345Z,101829.00
2019-04-03T18:02:32.482Z,101824.00
2019-04-03T18:05:06.410Z,101819.00
2019-04-03T18:07:39.498Z,101823.00
2019-04-03T18:10:13.001Z,101827.00
2019-04-03T18:12:46.198Z,101829.00
2019-04-03T18:15:20.242Z,101828.00
2019-04-03T18:17:53.470Z,101828.00
2019-04-03T18:20:26.739Z,101827.00
2019-04-03T18:23:00.358Z,101827.00
2019-04-03T18:25:33.234Z,101823.00
2019-04-03T18:28:07.210Z,101821.00
2019-04-03T18:30:42.130Z,101819.00
2019-04-03T18:33:16.695Z,101820.00
2019-04-03T18:35:48.692Z,101826.00
2019-04-03T18:38:21.792Z,101823.00
2019-04-03T18:40:54.924Z,101817.00
2019-04-03T18:43:27.873Z,101813.00
2019-04-03T18:46:01.222Z,101822.00
2019-04-03T18:48:34.040Z,101823.00
2019-04-03T18:51:07.014Z,101823.00
2019-04-03T18:53:41.159Z,101831.00
2019-04-03T18:56:15.497Z,101828.00
2019-04-03T18:58:48.361Z,101832.00
2019-04-03T19:01:21.470Z,101827.00
2019-04-03T19:03:55.954Z,101832.00
2019-04-03T19:06:29.664Z,101832.00
2019-04-03T19:09:09.693Z,101829.00
2019-04-03T19:11:36.870Z,101830.00
2019-04-03T19:14:10.183Z,101829.00
2019-04-03T19:16:45.194Z,101835.00
2019-04-03T19:19:17.230Z,101831.00
2019-04-03T19:21:50.038Z,101835.00
2019-04-03T19:24:24.741Z,101832.00
2019-04-03T19:26:58.049Z,101835.00
2019-04-03T19:29:31.463Z,101832.00
2019-04-03T19:32:04.464Z,101838.00
2019-04-03T19:34:37.633Z,101834.00
2019-04-03T19:37:10.424Z,101830.00
2019-04-03T19:39:43.587Z,101835.00
2019-04-03T19:42:16.368Z,101839.00
2019-04-03T19:44:50.236Z,101840.00
2019-04-03T19:47:24.668Z,101843.00
2019-04-03T19:49:59.896Z,101850.00
2019-04-03T19:52:31.601Z,101824.00
2019-04-03T19:55:04.768Z,101846.00
2019-04-03T19:57:37.953Z,101843.00
2019-04-03T20:00:11.896Z,101857.00
2019-04-03T20:02:45.174Z,101848.00
2019-04-03T20:05:18.961Z,101848.00
2019-04-03T20:07:53.147Z,101858.00
2019-04-03T20:10:25.853Z,101864.00
2019-04-03T20:12:59.110Z,101856.00
2019-04-03T20:15:31.962Z,101861.00
2019-04-03T20:18:05.159Z,101858.00
2019-04-03T20:20:38.565Z,101854.00
2019-04-03T20:23:12.733Z,101869.00
2019-04-03T20:25:46.011Z,101860.00
2019-04-03T20:28:23.383Z,101873.00
2019-04-03T20:30:55.213Z,101869.00
2019-04-03T20:33:28.683Z,101875.00
2019-04-03T20:36:01.608Z,101869.00
2019-04-03T20:38:34.779Z,101875.00
2019-04-03T20:41:07.753Z,101863.00
2019-04-03T20:43:43.305Z,101869.00
2019-04-03T20:46:15.794Z,101860.00
2019-04-03T20:48:49.046Z,101861.00
2019-04-03T20:51:21.829Z,101858.00
2019-04-03T20:53:54.854Z,101861.00
2019-04-03T20:56:29.038Z,101860.00
2019-04-03T20:59:02.516Z,101864.00
2019-04-03T21:01:36.843Z,101869.00
2019-04-03T21:04:09.980Z,101869.00
2019-04-03T21:06:43.167Z,101855.00
2019-04-03T21:09:16.179Z,101855.00
2019-04-03T21:11:50.504Z,101857.00
2019-04-03T21:14:23.356Z,101849.00
2019-04-03T21:16:56.840Z,101858.00
2019-04-03T21:19:29.612Z,101860.00
2019-04-03T21:22:04.859Z,101862.00
2019-04-03T21:24:37.753Z,101860.00
2019-04-03T21:27:11.518Z,101856.00
2019-04-03T21:29:44.714Z,101859.00
2019-04-03T21:32:17.762Z,101855.00
2019-04-03T21:34:50.706Z,101851.00
2019-04-03T21:37:24.040Z,101853.00
2019-04-03T21:39:56.915Z,101848.00
2019-04-03T21:42:30.078Z,101855.00
2019-04-03T21:45:05.130Z,101856.00
2019-04-03T21:47:38.308Z,101856.00
2019-04-03T21:50:12.746Z,101862.00
2019-04-03T21:52:46.600Z,101849.00
2019-04-03T21:55:19.577Z,101851.00
2019-04-03T21:57:52.595Z,101846.00
2019-04-03T22:00:29.225Z,101849.00
2019-04-03T22:03:02.168Z,101844.00
2019-04-03T22:05:35.142Z,101851.00
2019-04-03T22:08:08.670Z,101851.00
2019-04-03T22:10:41.557Z,101846.00
2019-04-03T22:13:14.725Z,101844.00
2019-04-03T22:15:47.562Z,101836.00
2019-04-03T22:18:23.495Z,101834.00
2019-04-03T22:20:54.735Z,101838.00
2019-04-03T22:23:27.830Z,101850.00
2019-04-03T22:26:01.623Z,101850.00
2019-04-03T22:28:34.717Z,101849.00
2019-04-03T22:31:07.999Z,101846.00
2019-04-03T22:33:40.928Z,101842.00
2019-04-03T22:36:13.876Z,101851.00
2019-04-03T22:38:48.045Z,101846.00
2019-04-03T22:41:20.886Z,101844.00
2019-04-03T22:43:54.039Z,101845.00
2019-04-03T22:46:28.080Z,101848.00
2019-04-03T22:49:02.036Z,101846.00
2019-04-03T22:51:35.859Z,101856.00
2019-04-03T22:54:10.847Z,101856.00
2019-04-03T22:56:43.722Z,101849.00
2019-04-03T22:59:17.274Z,101838.00
2019-04-03T23:01:50.217Z,101838.00
2019-04-03T23:04:24.273Z,101840.00
2019-04-03T23:06:57.076Z,101840.00
2019-04-03T23:09:30.073Z,101827.00
2019-04-03T23:12:03.619Z,101826.00
2019-04-03T23:14:38.460Z,101820.00
2019-04-03T23:17:13.712Z,101820.00
2019-04-03T23:19:46.211Z,101813.00
2019-04-03T23:22:19.078Z,101809.00
2019-04-03T23:24:51.871Z,101804.00
2019-04-03T23:27:25.067Z,101810.00
2019-04-03T23:29:58.038Z,101797.00
2019-04-03T23:32:31.155Z,101807.00
2019-04-03T23:35:04.029Z,101803.00
2019-04-03T23:37:37.392Z,101799.00
2019-04-03T23:40:10.429Z,101800.00
2019-04-03T23:42:43.638Z,101794.00
2019-04-03T23:45:16.592Z,101794.00
2019-04-03T23:47:49.901Z,101791.00
2019-04-03T23:50:22.640Z,101797.00
2019-04-03T23:52:55.870Z,101793.00
2019-04-03T23:55:28.749Z,101785.00
2019-04-03T23:58:02.943Z,101784.00
